Time;durP1;ratioP1;P1;durP2;ratioP2;P2;SDS_P1;SDS_P2;PMS_P1;PMS_P2;Temp;Humidity;BMP_temperature;BMP_pressure;BME280_temperature;BME280_humidity;BME280_pressure;Samples;Min_cycle;Max_cycle;Signal;HPM_P1;HPM_P2
2023/09/15 00:02:43;;;;;;;;;7.00;7.00;;;;;21.73;100.00;99257.75;6255704;27;96326;-68
2023/09/15 00:05:48;;;;;;;;;8.00;7.00;;;;;21.75;100.00;99261.84;6270516;27;96431;-68
2023/09/15 00:08:51;;;;;;;;;8.00;8.00;;;;;21.70;100.00;99261.88;6288628;27;96402;-68
2023/09/15 00:11:55;;;;;;;;;7.50;7.00;;;;;21.72;100.00;99264.34;6269334;27;96947;-69
2023/09/15 00:14:58;;;;;;;;;9.00;7.00;;;;;21.73;100.00;99265.97;6284033;27;96366;-68
2023/09/15 00:18:04;;;;;;;;;7.40;7.00;;;;;21.73;100.00;99257.75;6265042;27;96558;-68
2023/09/15 00:21:09;;;;;;;;;8.00;8.00;;;;;21.78;100.00;99266.78;6266982;27;99341;-68
2023/09/15 00:24:12;;;;;;;;;6.60;6.00;;;;;21.82;100.00;99264.25;6260650;27;96694;-68
2023/09/15 00:27:15;;;;;;;;;7.00;6.00;;;;;21.83;100.00;99260.44;6262694;27;96294;-68
2023/09/15 00:30:21;;;;;;;;;6.20;6.00;;;;;21.81;100.00;99260.69;6262694;27;96820;-68
2023/09/15 00:33:26;;;;;;;;;7.00;7.00;;;;;21.80;100.00;99267.28;6258226;27;96322;-68
2023/09/15 00:36:29;;;;;;;;;8.00;8.00;;;;;21.75;100.00;99267.31;6269869;27;96344;-68
2023/09/15 00:39:32;;;;;;;;;6.00;6.00;;;;;21.74;100.00;99265.72;6268749;27;100672;-68
2023/09/15 00:42:35;;;;;;;;;6.00;5.75;;;;;21.79;100.00;99270.34;6264853;27;96330;-68
2023/09/15 00:45:39;;;;;;;;;7.00;6.00;;;;;21.83;100.00;99277.72;6262517;27;97384;-68
2023/09/15 00:48:45;;;;;;;;;7.60;7.00;;;;;21.89;100.00;99275.75;6244260;27;97685;-68
2023/09/15 00:51:50;;;;;;;;;4.75;4.00;;;;;21.95;100.00;99280.09;6274347;27;97542;-68
2023/09/15 00:54:55;;;;;;;;;4.00;4.00;;;;;21.99;100.00;99279.25;6261179;27;96422;-68
2023/09/15 00:58:02;;;;;;;;;4.00;4.00;;;;;22.00;100.00;99280.91;6243945;27;96866;-68
2023/09/15 01:01:06;;;;;;;;;5.60;5.00;;;;;22.01;100.00;99271.56;6265406;27;96381;-68
2023/09/15 01:04:11;;;;;;;;;5.40;5.40;;;;;22.03;100.00;99277.59;6266552;27;96475;-68
2023/09/15 01:07:14;;;;;;;;;6.00;5.00;;;;;22.06;100.00;99289.91;6264163;27;98430;-68
2023/09/15 01:10:18;;;;;;;;;5.00;4.25;;;;;22.05;100.00;99282.78;6266687;27;96298;-68
2023/09/15 01:13:22;;;;;;;;;9.00;8.00;;;;;22.07;100.00;99285.25;6264499;27;97861;-68
2023/09/15 01:16:38;;;;;;;;;5.00;5.00;;;;;22.06;100.00;99278.94;6245174;27;96326;-68
2023/09/15 01:20:13;;;;;;;;;5.20;5.20;;;;;22.01;100.00;99273.47;6240238;27;96879;-68
2023/09/15 01:23:36;;;;;;;;;5.00;5.00;;;;;22.06;100.00;99278.94;6241361;28;96849;-68
2023/09/15 01:27:00;;;;;;;;;5.75;5.00;;;;;22.07;100.00;99282.50;6241383;28;96852;-68
2023/09/15 01:30:05;;;;;;;;;6.00;5.00;;;;;22.06;100.00;99281.69;6241308;28;96533;-68
2023/09/15 01:33:11;;;;;;;;;9.00;8.50;;;;;22.06;100.00;99286.34;6239549;28;96502;-68
2023/09/15 01:36:14;;;;;;;;;8.60;7.00;;;;;22.02;100.00;99288.84;6241139;28;96357;-68
2023/09/15 01:39:17;;;;;;;;;6.00;6.00;;;;;22.06;100.00;99291.84;6239578;28;97788;-68
2023/09/15 01:42:20;;;;;;;;;6.00;6.00;;;;;22.07;100.00;99291.56;6244577;27;96481;-68
2023/09/15 01:45:25;;;;;;;;;7.40;7.00;;;;;22.06;100.00;99287.16;6266141;27;96405;-68
2023/09/15 01:48:31;;;;;;;;;5.00;5.00;;;;;22.06;100.00;99295.41;6259835;27;97800;-68
2023/09/15 01:51:35;;;;;;;;;8.00;7.00;;;;;22.06;100.00;99281.69;6251230;27;96582;-68
2023/09/15 01:54:38;;;;;;;;;7.00;6.00;;;;;22.06;100.00;99295.41;6263005;27;97820;-68
2023/09/15 01:57:42;;;;;;;;;8.00;8.00;;;;;22.05;100.00;99291.00;6264338;27;97105;-68
2023/09/15 02:00:46;;;;;;;;;8.00;7.00;;;;;22.06;100.00;99300.91;6245629;27;96686;-68
2023/09/15 02:03:50;;;;;;;;;6.60;6.60;;;;;22.06;100.00;99298.16;6263859;27;96610;-68
2023/09/15 02:06:53;;;;;;;;;7.00;7.00;;;;;22.02;100.00;99289.69;6246111;27;98431;-68
2023/09/15 02:09:56;;;;;;;;;6.00;5.40;;;;;22.01;100.00;99287.22;6259208;27;98659;-68
2023/09/15 02:12:59;;;;;;;;;6.40;6.40;;;;;22.00;100.00;99283.63;6240167;27;96857;-68
2023/09/15 02:16:06;;;;;;;;;7.00;7.00;;;;;21.94;100.00;99284.78;6238584;27;96324;-68
2023/09/15 02:19:09;;;;;;;;;7.00;6.00;;;;;21.92;100.00;99286.97;6253627;27;96735;-68
2023/09/15 02:22:13;;;;;;;;;5.00;5.00;;;;;21.88;100.00;99285.91;6237265;28;96677;-68
2023/09/15 02:25:17;;;;;;;;;6.00;5.20;;;;;21.86;100.00;99290.03;6254507;27;96894;-68
2023/09/15 02:28:20;;;;;;;;;7.40;7.00;;;;;21.83;100.00;99296.94;6253586;27;96487;-68
2023/09/15 02:31:25;;;;;;;;;8.00;8.00;;;;;21.77;100.00;99289.81;6240097;27;97063;-65
2023/09/15 02:34:28;;;;;;;;;5.00;4.60;;;;;21.72;100.00;99289.03;6238081;27;96540;-68
2023/09/15 02:37:32;;;;;;;;;6.00;5.00;;;;;21.70;100.00;99297.53;6238240;28;96620;-68
2023/09/15 02:40:35;;;;;;;;;7.00;7.00;;;;;21.68;100.00;99293.47;6240186;27;96449;-68
2023/09/15 02:43:39;;;;;;;;;7.00;7.00;;;;;21.69;100.00;99304.16;6255155;27;96256;-68
2023/09/15 02:46:44;;;;;;;;;6.00;6.00;;;;;21.66;100.00;99293.72;6250509;27;97053;-68
2023/09/15 02:49:47;;;;;;;;;6.80;4.80;;;;;21.63;100.00;99304.47;6235386;28;96384;-68
2023/09/15 02:52:50;;;;;;;;;6.60;5.60;;;;;21.63;100.00;99307.22;6192838;27;1396572;-68
2023/09/15 02:55:58;;;;;;;;;7.00;6.00;;;;;21.63;100.00;99307.22;6228831;27;98637;-68
2023/09/15 02:59:04;;;;;;;;;6.00;5.60;;;;;21.51;100.00;99286.41;6246929;27;96438;-68
2023/09/15 03:02:12;;;;;;;;;7.00;7.00;;;;;21.63;100.00;99313.53;6247243;27;96724;-68
2023/09/15 03:05:20;;;;;;;;;5.00;5.00;;;;;21.63;100.00;99310.78;6241631;27;98653;-68
2023/09/15 03:08:23;;;;;;;;;5.60;5.00;;;;;21.60;100.00;99300.34;6277692;27;96587;-68
2023/09/15 03:11:27;;;;;;;;;8.25;8.00;;;;;21.54;100.00;99302.34;6262100;27;96290;-68
2023/09/15 03:14:35;;;;;;;;;6.20;6.00;;;;;21.52;100.00;99304.53;6240682;27;96758;-68
2023/09/15 03:17:42;;;;;;;;;5.40;4.40;;;;;21.50;100.00;99305.94;6257954;27;96385;-68
2023/09/15 03:20:45;;;;;;;;;7.75;7.00;;;;;21.42;100.00;99301.84;6279310;27;96641;-68
2023/09/15 03:23:49;;;;;;;;;8.20;8.00;;;;;21.37;100.00;99303.78;6243686;27;98398;-68
2023/09/15 03:26:53;;;;;;;;;9.00;8.00;;;;;21.30;100.00;99303.28;6259183;27;96453;-68
2023/09/15 03:29:57;;;;;;;;;7.00;7.00;;;;;21.27;100.00;99296.41;6250144;27;96730;-65
2023/09/15 03:33:01;;;;;;;;;9.00;7.00;;;;;21.20;100.00;99306.88;6251632;27;97366;-68
2023/09/15 03:36:06;;;;;;;;;8.20;7.20;;;;;21.13;100.00;99312.66;6259511;27;96777;-68
2023/09/15 03:39:09;;;;;;;;;8.00;7.00;;;;;21.06;100.00;99316.78;6244018;27;96462;-68
2023/09/15 03:42:13;;;;;;;;;8.75;7.75;;;;;21.02;100.00;99312.94;6244375;27;96578;-69
2023/09/15 03:45:16;;;;;;;;;9.40;8.40;;;;;20.97;100.00;99315.69;6244110;27;96782;-68
2023/09/15 03:48:22;;;;;;;;;9.00;8.20;;;;;20.90;100.00;99307.78;6233253;27;98420;-66
2023/09/15 03:51:26;;;;;;;;;9.00;8.00;;;;;20.84;100.00;99310.81;6262144;27;97388;-68
2023/09/15 03:54:30;;;;;;;;;7.00;6.00;;;;;20.80;100.00;99320.69;6254809;27;96593;-68
2023/09/15 03:57:33;;;;;;;;;6.40;5.60;;;;;20.79;100.00;99317.13;6251744;27;99241;-68
2023/09/15 04:00:36;;;;;;;;;7.00;7.00;;;;;20.79;100.00;99314.38;6264732;27;96261;-68
2023/09/15 04:03:41;;;;;;;;;7.00;5.00;;;;;20.81;100.00;99317.69;6263326;27;98104;-68
2023/09/15 04:06:44;;;;;;;;;9.40;7.40;;;;;20.82;100.00;99327.53;6287306;27;96485;-68
2023/09/15 04:09:48;;;;;;;;;9.00;8.40;;;;;20.83;100.00;99331.09;6272429;27;96373;-68
2023/09/15 04:12:51;;;;;;;;;7.00;7.00;;;;;20.83;100.00;99331.91;6274956;27;96498;-69
2023/09/15 04:15:56;;;;;;;;;9.80;8.00;;;;;20.89;100.00;99340.94;6265692;27;96966;-68
2023/09/15 04:19:01;;;;;;;;;7.00;6.20;;;;;20.89;100.00;99339.03;6234212;27;99368;-68
2023/09/15 04:22:04;;;;;;;;;8.20;7.20;;;;;20.89;100.00;99344.50;6256239;27;96588;-69
2023/09/15 04:25:09;;;;;;;;;8.00;8.00;;;;;20.85;100.00;99343.44;6237399;27;96658;-68
2023/09/15 04:28:14;;;;;;;;;7.40;7.00;;;;;20.80;100.00;99348.91;6253197;27;96771;-68
2023/09/15 04:31:19;;;;;;;;;9.00;9.00;;;;;20.77;100.00;99349.47;6259680;27;96539;-68
2023/09/15 04:34:24;;;;;;;;;9.00;9.00;;;;;20.77;100.00;99353.03;6250948;27;97005;-68
2023/09/15 04:37:28;;;;;;;;;9.40;9.00;;;;;20.75;100.00;99360.72;6267784;27;96871;-69
2023/09/15 04:40:31;;;;;;;;;8.50;7.25;;;;;20.76;100.00;99353.31;6259921;27;97050;-68
2023/09/15 04:43:35;;;;;;;;;11.20;10.00;;;;;20.78;100.00;99364.81;6230537;27;98809;-68
2023/09/15 04:46:39;;;;;;;;;12.00;11.00;;;;;20.83;100.00;99361.22;6247142;27;98249;-68
2023/09/15 04:49:44;;;;;;;;;12.20;11.60;;;;;20.90;100.00;99372.75;6267986;27;97194;-68
2023/09/15 04:52:47;;;;;;;;;10.40;10.40;;;;;20.94;100.00;99379.31;6275465;27;96836;-68
2023/09/15 04:55:51;;;;;;;;;11.00;9.20;;;;;20.93;100.00;99364.78;6241168;27;96460;-68
2023/09/15 04:58:55;;;;;;;;;12.00;10.00;;;;;21.03;100.00;99383.13;6249267;27;96739;-69
2023/09/15 05:01:58;;;;;;;;;12.50;11.00;;;;;21.07;100.00;99373.25;6257432;27;96737;-68
2023/09/15 05:05:03;;;;;;;;;10.00;9.00;;;;;21.14;100.00;99373.81;6247801;27;97088;-68
2023/09/15 05:08:07;;;;;;;;;10.00;10.00;;;;;21.13;100.00;99383.94;6258990;27;96629;-68
2023/09/15 05:11:10;;;;;;;;;9.20;8.20;;;;;21.16;100.00;99382.56;6251112;27;96696;-68
2023/09/15 05:14:13;;;;;;;;;15.25;13.50;;;;;21.16;100.00;99375.16;6259684;27;96848;-67
2023/09/15 05:17:18;;;;;;;;;14.00;13.00;;;;;21.14;100.00;99380.13;6263455;27;96762;-68
2023/09/15 05:20:22;;;;;;;;;13.00;13.00;;;;;21.18;100.00;99386.69;6260020;27;96465;-68
2023/09/15 05:23:26;;;;;;;;;16.00;14.00;;;;;21.24;100.00;99395.72;6269147;27;96281;-68
2023/09/15 05:26:29;;;;;;;;;15.50;13.75;;;;;21.29;100.00;99390.22;6262662;27;96878;-68
2023/09/15 05:29:33;;;;;;;;;14.00;13.80;;;;;21.35;100.00;99386.38;6245559;27;96993;-67
2023/09/15 05:32:37;;;;;;;;;14.00;12.50;;;;;21.44;100.00;99384.69;6255835;27;100176;-68
2023/09/15 05:35:42;;;;;;;;;13.20;13.20;;;;;21.62;100.00;99388.72;6244795;27;97679;-68
2023/09/15 05:38:45;;;;;;;;;15.75;14.75;;;;;21.80;100.00;99392.72;6254274;27;97867;-68
2023/09/15 05:41:49;;;;;;;;;13.75;12.50;;;;;21.95;100.00;99400.91;6232738;27;96863;-68
2023/09/15 05:44:54;;;;;;;;;12.00;12.00;;;;;22.04;100.00;99404.69;6243926;27;97119;-68
2023/09/15 05:47:57;;;;;;;;;12.00;11.00;;;;;22.12;100.00;99398.63;6290134;27;96579;-68
2023/09/15 05:51:03;;;;;;;;;12.00;11.00;;;;;22.16;100.00;99402.44;6290575;27;96901;-68
2023/09/15 05:54:07;;;;;;;;;10.60;10.60;;;;;22.30;100.00;99408.09;6271157;27;97372;-68
2023/09/15 05:57:10;;;;;;;;;12.00;11.00;;;;;22.49;100.00;99406.31;6272055;27;96139;-68
2023/09/15 06:00:14;;;;;;;;;9.00;8.00;;;;;22.55;100.00;99396.91;6254528;27;96727;-68
2023/09/15 06:03:17;;;;;;;;;8.00;8.00;;;;;22.57;100.00;99402.13;6271725;27;96520;-68
2023/09/15 06:06:22;;;;;;;;;7.00;5.00;;;;;22.66;100.00;99414.97;6290426;27;96910;-68
2023/09/15 06:09:25;;;;;;;;;7.00;7.00;;;;;22.96;100.00;99413.91;6239271;27;99099;-68
2023/09/15 06:12:28;;;;;;;;;4.00;4.00;;;;;23.10;100.00;99420.38;6265250;27;96324;-68
2023/09/15 06:15:33;;;;;;;;;7.00;7.00;;;;;23.42;100.00;99427.97;6265230;27;96415;-68
2023/09/15 06:18:37;;;;;;;;;6.00;5.00;;;;;23.51;100.00;99425.44;6263391;27;96878;-68
2023/09/15 06:21:41;;;;;;;;;6.60;5.80;;;;;23.66;100.00;99425.25;6265012;27;96527;-68
2023/09/15 06:24:44;;;;;;;;;6.50;6.00;;;;;23.79;100.00;99420.97;6264750;27;96364;-68
2023/09/15 06:27:48;;;;;;;;;5.00;5.00;;;;;23.99;100.00;99412.44;6262659;27;97438;-68
2023/09/15 06:30:52;;;;;;;;;6.20;6.20;;;;;24.18;100.00;99416.03;6246412;27;96431;-68
2023/09/15 06:33:55;;;;;;;;;5.60;4.60;;;;;24.28;100.00;99415.06;6264469;27;96554;-68
2023/09/15 06:37:01;;;;;;;;;4.00;4.00;;;;;24.67;100.00;99417.47;6264729;27;96372;-69
2023/09/15 06:40:06;;;;;;;;;4.67;4.67;;;;;24.85;100.00;99417.44;6254063;27;97993;-68
2023/09/15 06:43:09;;;;;;;;;4.00;4.00;;;;;24.63;100.00;99417.25;6289546;27;97564;-68
2023/09/15 06:46:15;;;;;;;;;5.50;5.00;;;;;24.81;100.00;99426.63;6289688;27;96397;-68
2023/09/15 06:49:21;;;;;;;;;5.00;5.00;;;;;25.08;100.00;99429.47;6290059;27;96441;-68
2023/09/15 06:52:27;;;;;;;;;6.00;6.00;;;;;25.30;100.00;99424.09;6289417;27;96434;-68
2023/09/15 06:55:30;;;;;;;;;5.00;5.00;;;;;25.67;100.00;99428.59;6278559;27;97024;-68
2023/09/15 06:58:34;;;;;;;;;5.40;5.00;;;;;25.98;100.00;99426.03;6227708;27;97120;-68
2023/09/15 07:01:39;;;;;;;;;6.00;5.60;;;;;26.27;100.00;99432.03;6228354;27;96724;-68
2023/09/15 07:04:43;;;;;;;;;6.00;5.00;;;;;26.26;100.00;99430.38;6263934;27;96343;-68
2023/09/15 07:07:48;;;;;;;;;5.60;5.00;;;;;26.33;100.00;99443.78;6263855;27;96349;-68
2023/09/15 07:10:52;;;;;;;;;6.00;6.00;;;;;25.68;100.00;99438.53;6283574;27;96378;-68
2023/09/15 07:13:55;;;;;;;;;7.00;7.00;;;;;25.52;100.00;99437.16;6270240;27;98757;-68
2023/09/15 07:16:59;;;;;;;;;5.00;4.75;;;;;25.72;100.00;99411.94;6289212;27;96955;-68
2023/09/15 07:20:02;;;;;;;;;6.60;6.60;;;;;25.96;100.00;99439.31;6270024;27;98610;-68
2023/09/15 07:23:06;;;;;;;;;7.00;7.00;;;;;26.17;100.00;99432.22;6253757;27;96746;-68
2023/09/15 07:26:09;;;;;;;;;6.20;5.00;;;;;26.49;100.00;99439.50;6288954;27;96455;-68
2023/09/15 07:29:13;;;;;;;;;5.80;5.80;;;;;26.76;100.00;99446.06;6270599;27;97100;-68
2023/09/15 07:32:16;;;;;;;;;7.50;6.00;;;;;26.66;100.00;99447.13;6270240;27;96760;-68
2023/09/15 07:35:19;;;;;;;;;6.50;5.50;;;;;26.68;100.00;99442.91;6269714;27;96864;-68
2023/09/15 07:38:24;;;;;;;;;8.00;6.00;;;;;26.87;100.00;99436.41;6268320;27;96895;-68
2023/09/15 07:41:27;;;;;;;;;5.00;4.60;;;;;27.08;100.00;99438.34;6263417;27;97611;-68
2023/09/15 07:44:30;;;;;;;;;4.60;4.00;;;;;27.83;100.00;99433.78;6265502;27;96433;-68
2023/09/15 07:47:34;;;;;;;;;6.00;5.75;;;;;28.35;100.00;99440.25;6261821;27;96746;-68
2023/09/15 07:50:37;;;;;;;;;4.00;4.00;;;;;28.86;100.00;99439.44;6263092;27;97037;-68
2023/09/15 07:53:43;;;;;;;;;4.00;4.00;;;;;28.93;100.00;99434.19;6260777;27;99759;-69
2023/09/15 07:56:46;;;;;;;;;7.00;7.00;;;;;28.18;100.00;99443.03;6261064;27;97005;-68
2023/09/15 07:59:49;;;;;;;;;5.00;5.00;;;;;28.63;100.00;99440.75;6262996;27;96624;-68
2023/09/15 08:02:55;;;;;;;;;4.00;4.00;;;;;29.29;100.00;99442.94;6263235;27;96295;-68
2023/09/15 08:05:58;;;;;;;;;5.00;4.00;;;;;29.95;100.00;99439.75;6261946;27;96361;-68
2023/09/15 08:09:06;;;;;;;;;5.00;4.00;;;;;30.77;100.00;99440.94;6269724;27;96829;-69
2023/09/15 08:12:09;;;;;;;;;4.00;4.00;;;;;30.86;100.00;99450.00;6283456;27;96474;-69
2023/09/15 08:15:14;;;;;;;;;3.00;3.00;;;;;31.25;100.00;99451.44;6264990;27;99077;-68
2023/09/15 08:18:17;;;;;;;;;4.00;4.00;;;;;31.86;100.00;99454.31;6268578;27;96907;-69
2023/09/15 08:21:20;;;;;;;;;6.00;5.00;;;;;32.58;100.00;99453.41;6253940;27;97575;-68
2023/09/15 08:24:25;;;;;;;;;3.00;3.00;;;;;33.31;100.00;99450.31;6254210;27;98496;-68
2023/09/15 08:27:28;;;;;;;;;3.00;3.00;;;;;33.01;100.00;99441.50;6273554;27;96852;-69
2023/09/15 08:30:33;;;;;;;;;3.00;3.00;;;;;32.94;100.00;99447.69;6273132;27;96652;-68
2023/09/15 08:33:36;;;;;;;;;3.00;3.00;;;;;33.14;100.00;99440.25;6255539;27;97254;-68
2023/09/15 08:36:40;;;;;;;;;4.00;3.00;;;;;32.46;100.00;99457.03;6262252;27;96500;-68
2023/09/15 08:39:45;;;;;;;;;6.40;6.40;;;;;32.53;100.00;99446.09;6250607;27;96944;-68
2023/09/15 08:42:49;;;;;;;;;3.50;3.50;;;;;33.34;99.97;99438.41;6274124;27;96382;-68
2023/09/15 08:45:56;;;;;;;;;3.00;2.60;;;;;33.97;97.18;99430.00;6274604;27;96796;-69
2023/09/15 08:49:01;;;;;;;;;4.00;4.00;;;;;34.67;90.11;99444.78;6273518;27;97216;-69
2023/09/15 08:52:06;;;;;;;;;4.00;4.00;;;;;35.16;86.53;99445.00;6239056;27;98552;-69
2023/09/15 08:55:10;;;;;;;;;5.00;4.00;;;;;35.33;83.29;99450.16;6264811;27;96916;-69
2023/09/15 08:58:14;;;;;;;;;5.00;4.80;;;;;35.15;85.42;99449.78;6275498;27;96720;-69
2023/09/15 09:01:19;;;;;;;;;4.50;4.50;;;;;35.10;85.97;99444.47;6257728;27;96362;-69
2023/09/15 09:04:22;;;;;;;;;5.00;4.40;;;;;35.50;84.89;99440.41;6243519;27;96666;-69
2023/09/15 09:07:26;;;;;;;;;4.00;4.00;;;;;35.96;82.96;99449.63;6243962;27;97631;-69
2023/09/15 09:10:31;;;;;;;;;3.20;3.00;;;;;36.51;81.59;99447.25;6273715;27;96924;-69
2023/09/15 09:13:35;;;;;;;;;3.00;3.00;;;;;36.54;74.92;99454.91;6268714;27;96362;-69
2023/09/15 09:16:52;;;;;;;;;2.00;2.00;;;;;36.39;75.13;99456.69;6287504;27;96510;-69
2023/09/15 09:19:56;;;;;;;;;2.60;2.60;;;;;35.79;80.95;99441.72;6288434;27;96339;-69
2023/09/15 09:22:59;;;;;;;;;4.00;3.00;;;;;35.94;80.79;99444.38;6272610;27;98579;-69
2023/09/15 09:26:11;;;;;;;;;4.00;4.00;;;;;36.03;79.17;99450.53;6272646;27;96740;-69
2023/09/15 09:29:16;;;;;;;;;3.00;3.00;;;;;36.38;76.54;99443.84;6273591;27;96355;-69
2023/09/15 09:32:19;;;;;;;;;3.00;3.00;;;;;36.34;79.81;99446.63;6290887;27;96789;-69
2023/09/15 09:35:22;;;;;;;;;2.60;2.00;;;;;35.68;77.13;99440.78;6272597;27;96742;-69
2023/09/15 09:38:26;;;;;;;;;3.00;3.00;;;;;34.80;82.08;99451.09;6291475;27;96320;-69
2023/09/15 09:41:31;;;;;;;;;3.80;3.00;;;;;34.30;83.46;99445.22;6252254;27;96429;-70
2023/09/15 09:44:36;;;;;;;;;3.00;3.00;;;;;33.87;80.74;99448.97;6265868;27;96495;-69
2023/09/15 09:47:39;;;;;;;;;4.00;3.00;;;;;33.92;80.48;99442.28;6266169;27;96417;-69
2023/09/15 09:50:42;;;;;;;;;5.00;3.40;;;;;33.53;81.47;99443.31;6246808;27;96974;-69
2023/09/15 09:53:45;;;;;;;;;3.00;2.00;;;;;32.97;84.45;99446.16;6246195;27;96725;-69
2023/09/15 09:56:50;;;;;;;;;4.20;4.20;;;;;33.06;85.33;99439.25;6263250;27;96887;-70
2023/09/15 09:59:54;;;;;;;;;2.00;2.00;;;;;32.75;83.96;99429.97;6265897;27;96425;-70
2023/09/15 10:02:57;;;;;;;;;4.00;3.80;;;;;32.13;86.23;99440.50;6247369;27;96453;-69
2023/09/15 10:06:00;;;;;;;;;4.00;4.00;;;;;31.78;93.27;99442.94;6246655;27;97140;-70
2023/09/15 10:09:05;;;;;;;;;4.00;4.00;;;;;31.85;96.37;99441.53;6263813;27;96465;-69
2023/09/15 10:12:11;;;;;;;;;5.00;3.60;;;;;31.53;95.74;99426.50;6282429;27;97384;-69
2023/09/15 10:15:15;;;;;;;;;4.00;4.00;;;;;31.40;95.84;99439.63;6275808;27;96447;-69
2023/09/15 10:18:20;;;;;;;;;4.40;4.40;;;;;31.56;94.17;99426.69;6265411;27;97180;-69
2023/09/15 10:21:25;;;;;;;;;4.00;4.00;;;;;31.25;91.91;99418.81;6266709;27;98766;-69
2023/09/15 10:24:29;;;;;;;;;5.00;4.00;;;;;32.05;90.68;99426.66;6276210;27;96646;-70
2023/09/15 10:27:34;;;;;;;;;3.00;3.00;;;;;31.71;89.44;99425.97;6277809;27;96700;-69
2023/09/15 10:30:38;;;;;;;;;5.00;4.80;;;;;31.55;93.73;99413.88;6275543;27;96570;-69
2023/09/15 10:33:43;;;;;;;;;4.00;3.00;;;;;32.19;91.72;99424.31;6245161;27;96827;-69
2023/09/15 10:36:46;;;;;;;;;3.75;3.75;;;;;32.41;91.20;99406.22;6275012;27;96640;-69
2023/09/15 10:39:58;;;;;;;;;4.00;3.50;;;;;32.13;88.96;99409.81;6276977;27;96689;-69
2023/09/15 10:43:08;;;;;;;;;3.00;3.00;;;;;32.50;92.25;99416.06;6269950;27;96473;-69
2023/09/15 10:46:11;;;;;;;;;2.80;2.20;;;;;32.42;89.94;99424.59;6257084;27;96700;-69
2023/09/15 10:49:16;;;;;;;;;3.00;3.00;;;;;32.67;86.73;99417.78;6267097;27;96343;-69
2023/09/15 10:52:33;;;;;;;;;5.00;4.00;;;;;32.07;90.05;99418.72;6289753;27;96515;-69
2023/09/15 10:55:38;;;;;;;;;2.60;2.40;;;;;31.87;92.47;99422.47;6271870;27;96280;-69
2023/09/15 10:58:43;;;;;;;;;3.00;3.00;;;;;31.91;89.39;99412.25;6290176;27;96278;-69
2023/09/15 11:01:47;;;;;;;;;4.00;3.00;;;;;31.77;92.50;99420.97;6262275;27;96966;-69
2023/09/15 11:04:51;;;;;;;;;4.50;4.00;;;;;31.94;89.12;99409.56;6245647;27;96719;-69
2023/09/15 11:07:56;;;;;;;;;3.60;3.60;;;;;32.07;90.55;99410.34;6264305;27;96594;-69
2023/09/15 11:10:59;;;;;;;;;3.00;3.00;;;;;31.97;87.34;99411.66;6264336;27;96243;-69
2023/09/15 11:14:05;;;;;;;;;3.00;3.00;;;;;31.80;89.18;99415.53;6229405;27;96737;-69
2023/09/15 11:17:08;;;;;;;;;4.00;3.00;;;;;31.54;92.85;99417.81;6264506;27;96366;-70
2023/09/15 11:20:12;;;;;;;;;5.00;4.80;;;;;30.75;93.50;99404.25;6266907;27;96666;-69
2023/09/15 11:23:17;;;;;;;;;4.00;3.00;;;;;30.49;96.27;99407.31;6289278;27;96370;-69
2023/09/15 11:26:21;;;;;;;;;3.40;3.40;;;;;30.47;99.86;99409.59;6261989;27;96296;-69
2023/09/15 11:29:32;;;;;;;;;4.20;4.20;;;;;30.63;97.29;99410.63;6264701;27;96677;-69
2023/09/15 11:32:35;;;;;;;;;4.60;4.00;;;;;30.70;95.17;99407.25;6258139;27;96564;-69
2023/09/15 11:35:39;;;;;;;;;4.00;3.20;;;;;30.51;98.65;99405.81;6270648;27;96339;-69
2023/09/15 11:38:43;;;;;;;;;4.00;4.00;;;;;31.03;95.95;99413.69;6279369;27;96979;-69
2023/09/15 11:41:53;;;;;;;;;4.00;4.00;;;;;31.73;89.48;99417.25;6266755;27;96335;-69
2023/09/15 11:44:58;;;;;;;;;5.00;4.75;;;;;31.97;90.13;99405.25;6263613;27;96729;-69
2023/09/15 11:48:03;;;;;;;;;4.50;4.50;;;;;31.61;93.83;99408.91;6263905;27;96502;-69
2023/09/15 11:51:10;;;;;;;;;3.00;3.00;;;;;31.45;90.59;99407.94;6238950;27;97024;-68
2023/09/15 11:54:14;;;;;;;;;6.00;5.00;;;;;31.74;91.33;99405.75;6269260;27;96660;-69
2023/09/15 11:57:17;;;;;;;;;2.00;2.00;;;;;31.51;87.24;99390.63;6279393;27;96242;-69
2023/09/15 12:00:25;;;;;;;;;4.00;3.80;;;;;31.03;88.07;99398.94;6267868;27;96543;-69
2023/09/15 12:03:31;;;;;;;;;29.60;24.20;;;;;31.04;89.31;99395.78;6269140;27;97185;-69
2023/09/15 12:06:35;;;;;;;;;14.00;12.00;;;;;31.05;88.52;99385.47;6288394;27;96574;-69
2023/09/15 12:09:38;;;;;;;;;5.00;4.00;;;;;31.17;88.35;99389.09;6285173;27;96346;-69
2023/09/15 12:12:43;;;;;;;;;5.00;3.80;;;;;31.71;91.58;99386.13;6287787;27;96484;-69
2023/09/15 12:15:48;;;;;;;;;5.00;4.00;;;;;31.51;91.22;99385.06;6269736;27;96379;-69
2023/09/15 12:18:51;;;;;;;;;4.50;4.50;;;;;31.80;86.57;99382.06;6269949;27;98605;-69
2023/09/15 12:21:59;;;;;;;;;5.00;4.00;;;;;31.74;88.33;99386.25;6282925;27;96875;-69
2023/09/15 12:25:03;;;;;;;;;4.40;4.00;;;;;32.11;83.77;99375.84;6271413;27;96929;-69
2023/09/15 12:28:07;;;;;;;;;3.00;3.00;;;;;32.54;79.00;99375.16;6249047;27;98657;-69
2023/09/15 12:31:17;;;;;;;;;4.00;4.00;;;;;31.96;79.79;99361.81;6265751;27;97194;-69
2023/09/15 12:34:21;;;;;;;;;2.00;2.00;;;;;31.89;80.03;99369.97;6255205;27;97432;-69
2023/09/15 12:37:27;;;;;;;;;3.00;3.00;;;;;31.77;82.18;99362.41;6232260;27;98691;-69
2023/09/15 12:40:32;;;;;;;;;3.40;3.40;;;;;31.89;87.56;99367.97;6259354;27;99599;-69
2023/09/15 12:43:35;;;;;;;;;3.00;2.40;;;;;31.57;84.10;99363.38;6236975;27;98556;-68
2023/09/15 12:46:41;;;;;;;;;2.00;2.00;;;;;31.77;84.12;99363.22;6253956;27;98559;-69
2023/09/15 12:49:44;;;;;;;;;3.00;2.60;;;;;32.08;83.67;99370.16;6261191;27;97277;-69
2023/09/15 12:52:47;;;;;;;;;4.00;3.00;;;;;31.93;79.88;99352.16;6260549;27;98816;-69
2023/09/15 12:55:50;;;;;;;;;4.00;3.00;;;;;31.37;78.12;99365.88;6278013;27;96873;-69
2023/09/15 12:58:54;;;;;;;;;3.25;3.25;;;;;31.29;76.70;99363.22;6279571;27;96639;-68
2023/09/15 13:01:59;;;;;;;;;3.00;2.00;;;;;31.45;79.99;99361.38;6264713;27;97870;-69
2023/09/15 13:05:04;;;;;;;;;2.00;2.00;;;;;31.58;81.06;99363.00;6261396;27;96681;-69
2023/09/15 13:08:08;;;;;;;;;4.00;4.00;;;;;31.71;79.26;99355.47;6260365;27;96712;-69
2023/09/15 13:11:12;;;;;;;;;3.60;3.60;;;;;31.15;77.17;99330.13;6242353;27;99206;-69
2023/09/15 13:14:16;;;;;;;;;4.00;3.50;;;;;30.64;79.28;99353.00;6269191;27;96826;-69
2023/09/15 13:17:20;;;;;;;;;4.00;4.00;;;;;30.62;85.53;99346.94;6269693;27;96732;-68
2023/09/15 13:20:23;;;;;;;;;4.25;3.00;;;;;30.89;85.81;99352.69;6259284;27;96565;-69
2023/09/15 13:23:27;;;;;;;;;3.60;3.00;;;;;31.01;81.97;99340.78;6267795;27;96806;-68
2023/09/15 13:26:31;;;;;;;;;3.00;3.00;;;;;31.19;84.82;99346.97;6287996;27;96491;-69
2023/09/15 13:29:34;;;;;;;;;4.00;3.20;;;;;31.33;83.60;99350.22;6268484;27;96835;-69
2023/09/15 13:32:38;;;;;;;;;3.00;2.25;;;;;31.25;82.70;99354.75;6244078;27;96741;-68
2023/09/15 13:35:42;;;;;;;;;3.25;3.25;;;;;31.21;79.02;99345.47;6290843;27;96415;-68
2023/09/15 13:38:45;;;;;;;;;5.00;4.00;;;;;31.29;82.98;99341.75;6276153;27;96551;-69
2023/09/15 13:41:49;;;;;;;;;4.00;4.00;;;;;31.51;81.92;99345.22;6277126;27;96331;-69
2023/09/15 13:44:52;;;;;;;;;4.00;2.60;;;;;31.70;80.80;99326.78;6275306;27;96337;-69
2023/09/15 13:47:57;;;;;;;;;5.00;4.00;;;;;31.86;80.62;99334.41;6265936;27;96792;-69
2023/09/15 13:51:01;;;;;;;;;3.80;3.00;;;;;31.44;79.53;99339.41;6269533;27;96528;-69
2023/09/15 13:54:05;;;;;;;;;5.00;5.00;;;;;31.35;83.56;99347.91;6259541;27;98024;-69
2023/09/15 13:57:10;;;;;;;;;4.00;4.00;;;;;31.24;81.77;99336.41;6262307;27;96309;-69
2023/09/15 14:00:29;;;;;;;;;4.00;3.80;;;;;31.22;81.36;99335.13;6245649;27;96372;-69
2023/09/15 14:03:35;;;;;;;;;4.00;4.00;;;;;31.11;76.45;99334.78;6235461;28;96584;-69
2023/09/15 14:06:39;;;;;;;;;4.00;4.00;;;;;30.84;76.39;99329.81;6233559;28;96935;-69
2023/09/15 14:09:42;;;;;;;;;6.40;4.40;;;;;30.39;78.10;99327.00;6250767;27;96869;-69
2023/09/15 14:12:46;;;;;;;;;3.00;3.00;;;;;30.40;79.43;99323.06;6262793;27;96648;-69
2023/09/15 14:15:49;;;;;;;;;5.00;4.40;;;;;30.53;78.35;99320.03;6256845;27;96601;-69
2023/09/15 14:18:54;;;;;;;;;5.50;5.00;;;;;30.37;76.58;99323.75;6251634;27;96432;-69
2023/09/15 14:21:57;;;;;;;;;4.00;4.00;;;;;30.18;79.87;99315.91;6256015;27;96592;-69